sensor_id;sensor_type;location;lat;lon;timestamp;pressure;altitude;pressure_sealevel;temperature;humidity
43115;BME280;28727;50.068;14.452;2024-01-30T00:00:07;101047.91;;;0.17;81.02
43115;BME280;28727;50.068;14.452;2024-01-30T00:02:42;101053.88;;;0.19;80.83
43115;BME280;28727;50.068;14.452;2024-01-30T00:05:14;101053.63;;;0.25;80.74
43115;BME280;28727;50.068;14.452;2024-01-30T00:07:51;101058.06;;;0.23;80.22
43115;BME280;28727;50.068;14.452;2024-01-30T00:10:23;101049.53;;;0.20;80.38
43115;BME280;28727;50.068;14.452;2024-01-30T00:12:55;101055.50;;;0.22;80.56
43115;BME280;28727;50.068;14.452;2024-01-30T00:15:27;101053.69;;;0.24;80.86
43115;BME280;28727;50.068;14.452;2024-01-30T00:17:59;101052.72;;;0.26;81.05
43115;BME280;28727;50.068;14.452;2024-01-30T00:20:31;101053.44;;;0.30;81.26
43115;BME280;28727;50.068;14.452;2024-01-30T00:23:03;101050.59;;;0.36;81.10
43115;BME280;28727;50.068;14.452;2024-01-30T00:25:35;101047.75;;;0.42;80.80
43115;BME280;28727;50.068;14.452;2024-01-30T00:28:06;101046.72;;;0.46;80.74
43115;BME280;28727;50.068;14.452;2024-01-30T00:30:39;101035.44;;;0.47;80.51
43115;BME280;28727;50.068;14.452;2024-01-30T00:33:11;101041.00;;;0.38;80.62
43115;BME280;28727;50.068;14.452;2024-01-30T00:35:43;101041.00;;;0.38;80.28
43115;BME280;28727;50.068;14.452;2024-01-30T00:38:16;101037.97;;;0.27;80.01
43115;BME280;28727;50.068;14.452;2024-01-30T00:40:49;101040.13;;;0.17;80.08
43115;BME280;28727;50.068;14.452;2024-01-30T00:43:21;101034.41;;;0.08;80.98
43115;BME280;28727;50.068;14.452;2024-01-30T00:45:53;101035.41;;;0.05;81.49
43115;BME280;28727;50.068;14.452;2024-01-30T00:48:25;101035.31;;;0.07;81.50
43115;BME280;28727;50.068;14.452;2024-01-30T00:50:57;101032.56;;;0.11;81.86
43115;BME280;28727;50.068;14.452;2024-01-30T00:53:29;101033.22;;;0.16;81.36
43115;BME280;28727;50.068;14.452;2024-01-30T00:56:02;101025.72;;;0.09;81.94
43115;BME280;28727;50.068;14.452;2024-01-30T00:58:35;101030.88;;;0.10;81.89
43115;BME280;28727;50.068;14.452;2024-01-30T01:01:07;101035.03;;;0.14;81.69
43115;BME280;28727;50.068;14.452;2024-01-30T01:03:39;101038.47;;;0.15;81.55
43115;BME280;28727;50.068;14.452;2024-01-30T01:06:13;101036.72;;;0.15;81.42
43115;BME280;28727;50.068;14.452;2024-01-30T01:08:49;101033.28;;;0.15;81.75
43115;BME280;28727;50.068;14.452;2024-01-30T01:11:21;101028.97;;;0.14;81.52
43115;BME280;28727;50.068;14.452;2024-01-30T01:13:53;101025.78;;;0.07;81.26
43115;BME280;28727;50.068;14.452;2024-01-30T01:16:29;101024.09;;;0.06;81.79
43115;BME280;28727;50.068;14.452;2024-01-30T01:19:07;101021.81;;;-0.02;81.59
43115;BME280;28727;50.068;14.452;2024-01-30T01:21:39;101011.53;;;-0.05;81.67
43115;BME280;28727;50.068;14.452;2024-01-30T01:24:11;101019.69;;;-0.14;81.43
43115;BME280;28727;50.068;14.452;2024-01-30T01:26:43;101030.19;;;-0.17;81.65
43115;BME280;28727;50.068;14.452;2024-01-30T01:29:17;101015.88;;;-0.27;82.36
43115;BME280;28727;50.068;14.452;2024-01-30T01:31:56;101013.47;;;-0.31;82.44
43115;BME280;28727;50.068;14.452;2024-01-30T01:34:28;101014.41;;;-0.34;82.49
43115;BME280;28727;50.068;14.452;2024-01-30T01:37:01;101021.34;;;-0.34;82.25
43115;BME280;28727;50.068;14.452;2024-01-30T01:39:36;101018.03;;;-0.38;82.73
43115;BME280;28727;50.068;14.452;2024-01-30T01:42:08;101022.16;;;-0.32;82.86
43115;BME280;28727;50.068;14.452;2024-01-30T01:44:43;101025.56;;;-0.30;82.44
43115;BME280;28727;50.068;14.452;2024-01-30T01:47:15;101023.72;;;-0.28;82.57
43115;BME280;28727;50.068;14.452;2024-01-30T01:49:47;101023.97;;;-0.34;81.67
43115;BME280;28727;50.068;14.452;2024-01-30T01:52:21;101025.16;;;-0.43;82.29
43115;BME280;28727;50.068;14.452;2024-01-30T01:54:53;101024.38;;;-0.45;82.43
43115;BME280;28727;50.068;14.452;2024-01-30T01:57:25;101019.06;;;-0.42;82.72
43115;BME280;28727;50.068;14.452;2024-01-30T01:59:57;101021.53;;;-0.39;82.96
43115;BME280;28727;50.068;14.452;2024-01-30T02:02:35;101014.59;;;-0.38;82.70
43115;BME280;28727;50.068;14.452;2024-01-30T02:05:14;101010.97;;;-0.34;82.91
43115;BME280;28727;50.068;14.452;2024-01-30T02:07:47;101006.44;;;-0.29;82.85
43115;BME280;28727;50.068;14.452;2024-01-30T02:10:19;101014.94;;;-0.24;82.88
43115;BME280;28727;50.068;14.452;2024-01-30T02:12:51;101014.84;;;-0.23;82.50
43115;BME280;28727;50.068;14.452;2024-01-30T02:15:25;101021.78;;;-0.23;82.52
43115;BME280;28727;50.068;14.452;2024-01-30T02:17:57;101019.94;;;-0.20;82.58
43115;BME280;28727;50.068;14.452;2024-01-30T02:20:30;101004.41;;;-0.21;82.50
43115;BME280;28727;50.068;14.452;2024-01-30T02:23:04;101013.84;;;-0.19;82.52
43115;BME280;28727;50.068;14.452;2024-01-30T02:25:39;101013.75;;;-0.17;82.17
43115;BME280;28727;50.068;14.452;2024-01-30T02:28:18;101014.94;;;-0.24;81.95
43115;BME280;28727;50.068;14.452;2024-01-30T02:30:52;101015.41;;;-0.36;82.61
43115;BME280;28727;50.068;14.452;2024-01-30T02:33:30;101022.28;;;-0.35;82.85
43115;BME280;28727;50.068;14.452;2024-01-30T02:36:02;101017.88;;;-0.33;82.93
43115;BME280;28727;50.068;14.452;2024-01-30T02:38:35;101011.78;;;-0.32;83.19
43115;BME280;28727;50.068;14.452;2024-01-30T02:41:07;101010.69;;;-0.27;82.96
43115;BME280;28727;50.068;14.452;2024-01-30T02:43:39;101006.53;;;-0.31;82.83
43115;BME280;28727;50.068;14.452;2024-01-30T02:46:11;101009.13;;;-0.31;82.83
43115;BME280;28727;50.068;14.452;2024-01-30T02:48:45;101008.03;;;-0.25;82.98
43115;BME280;28727;50.068;14.452;2024-01-30T02:51:17;101006.22;;;-0.23;82.72
43115;BME280;28727;50.068;14.452;2024-01-30T02:53:48;101004.34;;;-0.20;82.81
43115;BME280;28727;50.068;14.452;2024-01-30T02:56:25;100998.13;;;-0.16;82.88
43115;BME280;28727;50.068;14.452;2024-01-30T02:58:59;101002.41;;;-0.15;82.89
43115;BME280;28727;50.068;14.452;2024-01-30T03:01:33;100994.63;;;-0.15;83.13
43115;BME280;28727;50.068;14.452;2024-01-30T03:04:13;100997.22;;;-0.15;82.68
43115;BME280;28727;50.068;14.452;2024-01-30T03:06:47;100997.19;;;-0.13;82.45
43115;BME280;28727;50.068;14.452;2024-01-30T03:09:20;100996.28;;;-0.12;82.29
43115;BME280;28727;50.068;14.452;2024-01-30T03:11:58;101005.88;;;-0.14;82.64
43115;BME280;28727;50.068;14.452;2024-01-30T03:14:35;100991.25;;;-0.17;82.44
43115;BME280;28727;50.068;14.452;2024-01-30T03:17:07;100989.69;;;-0.21;82.52
43115;BME280;28727;50.068;14.452;2024-01-30T03:19:39;100994.03;;;-0.21;82.92
43115;BME280;28727;50.068;14.452;2024-01-30T03:22:23;100999.03;;;-0.17;83.13
43115;BME280;28727;50.068;14.452;2024-01-30T03:25:19;100990.34;;;-0.16;82.46
43115;BME280;28727;50.068;14.452;2024-01-30T03:27:51;100982.75;;;-0.20;82.98
43115;BME280;28727;50.068;14.452;2024-01-30T03:30:23;100984.31;;;-0.16;82.85
43115;BME280;28727;50.068;14.452;2024-01-30T03:33:01;100985.19;;;-0.17;82.94
43115;BME280;28727;50.068;14.452;2024-01-30T03:35:33;100984.25;;;-0.15;83.04
43115;BME280;28727;50.068;14.452;2024-01-30T03:38:05;100988.88;;;-0.23;82.49
43115;BME280;28727;50.068;14.452;2024-01-30T03:40:37;100978.94;;;-0.33;82.79
43115;BME280;28727;50.068;14.452;2024-01-30T03:43:08;100986.91;;;-0.38;82.65
43115;BME280;28727;50.068;14.452;2024-01-30T03:45:48;100984.50;;;-0.43;83.07
43115;BME280;28727;50.068;14.452;2024-01-30T03:48:21;100985.38;;;-0.44;83.56
43115;BME280;28727;50.068;14.452;2024-01-30T03:50:53;100981.81;;;-0.41;83.62
43115;BME280;28727;50.068;14.452;2024-01-30T03:53:25;100978.41;;;-0.42;83.24
43115;BME280;28727;50.068;14.452;2024-01-30T03:55:57;100979.34;;;-0.44;83.21
43115;BME280;28727;50.068;14.452;2024-01-30T03:58:29;100982.19;;;-0.50;83.35
43115;BME280;28727;50.068;14.452;2024-01-30T04:01:05;100976.13;;;-0.51;82.84
43115;BME280;28727;50.068;14.452;2024-01-30T04:03:37;100969.25;;;-0.52;83.33
43115;BME280;28727;50.068;14.452;2024-01-30T04:06:09;100967.69;;;-0.56;83.20
43115;BME280;28727;50.068;14.452;2024-01-30T04:08:42;100967.06;;;-0.62;83.29
43115;BME280;28727;50.068;14.452;2024-01-30T04:11:13;100965.47;;;-0.65;83.46
43115;BME280;28727;50.068;14.452;2024-01-30T04:13:45;100971.41;;;-0.63;83.60
43115;BME280;28727;50.068;14.452;2024-01-30T04:16:23;100964.63;;;-0.65;82.92
43115;BME280;28727;50.068;14.452;2024-01-30T04:18:58;100965.59;;;-0.69;82.95
43115;BME280;28727;50.068;14.452;2024-01-30T04:21:35;100974.47;;;-0.75;83.38
43115;BME280;28727;50.068;14.452;2024-01-30T04:24:31;100982.19;;;-0.73;83.24
43115;BME280;28727;50.068;14.452;2024-01-30T04:27:04;100972.50;;;-0.68;83.15
43115;BME280;28727;50.068;14.452;2024-01-30T04:29:39;100973.25;;;-0.65;83.19
43115;BME280;28727;50.068;14.452;2024-01-30T04:32:11;100973.28;;;-0.66;82.99
43115;BME280;28727;50.068;14.452;2024-01-30T04:34:43;100970.66;;;-0.65;83.06
43115;BME280;28727;50.068;14.452;2024-01-30T04:37:15;100969.66;;;-0.62;83.21
43115;BME280;28727;50.068;14.452;2024-01-30T04:39:47;100979.44;;;-0.69;82.78
43115;BME280;28727;50.068;14.452;2024-01-30T04:42:19;100982.19;;;-0.73;83.58
43115;BME280;28727;50.068;14.452;2024-01-30T04:44:54;100973.47;;;-0.71;83.74
43115;BME280;28727;50.068;14.452;2024-01-30T04:47:29;100980.19;;;-0.65;83.48
43115;BME280;28727;50.068;14.452;2024-01-30T04:50:01;100976.78;;;-0.67;83.20
43115;BME280;28727;50.068;14.452;2024-01-30T04:53:01;100981.19;;;-0.69;83.60
43115;BME280;28727;50.068;14.452;2024-01-30T04:55:35;100986.22;;;-0.65;83.71
43115;BME280;28727;50.068;14.452;2024-01-30T04:58:07;100981.63;;;-0.58;83.75
43115;BME280;28727;50.068;14.452;2024-01-30T05:00:39;100977.22;;;-0.56;83.07
43115;BME280;28727;50.068;14.452;2024-01-30T05:03:15;100982.38;;;-0.55;82.89
43115;BME280;28727;50.068;14.452;2024-01-30T05:05:51;100984.81;;;-0.52;83.03
43115;BME280;28727;50.068;14.452;2024-01-30T05:08:23;100981.22;;;-0.48;83.09
43115;BME280;28727;50.068;14.452;2024-01-30T05:10:55;100993.19;;;-0.44;83.50
43115;BME280;28727;50.068;14.452;2024-01-30T05:13:27;100988.59;;;-0.37;83.18
43115;BME280;28727;50.068;14.452;2024-01-30T05:16:01;100992.69;;;-0.31;83.09
43115;BME280;28727;50.068;14.452;2024-01-30T05:18:33;100994.16;;;-0.24;83.13
43115;BME280;28727;50.068;14.452;2024-01-30T05:21:05;100986.19;;;-0.20;82.72
43115;BME280;28727;50.068;14.452;2024-01-30T05:23:37;100988.72;;;-0.18;82.67
43115;BME280;28727;50.068;14.452;2024-01-30T05:26:11;100990.38;;;-0.17;82.74
43115;BME280;28727;50.068;14.452;2024-01-30T05:28:45;100986.78;;;-0.13;82.69
43115;BME280;28727;50.068;14.452;2024-01-30T05:31:17;100989.19;;;-0.09;82.60
43115;BME280;28727;50.068;14.452;2024-01-30T05:33:54;100994.50;;;-0.12;82.02
43115;BME280;28727;50.068;14.452;2024-01-30T05:36:26;100990.16;;;-0.11;81.98
43115;BME280;28727;50.068;14.452;2024-01-30T05:38:58;100987.44;;;-0.08;82.25
43115;BME280;28727;50.068;14.452;2024-01-30T05:41:32;100980.50;;;-0.08;82.64
43115;BME280;28727;50.068;14.452;2024-01-30T05:44:05;100986.22;;;0.00;82.72
43115;BME280;28727;50.068;14.452;2024-01-30T05:46:37;100980.00;;;0.05;82.32
43115;BME280;28727;50.068;14.452;2024-01-30T05:49:09;100981.56;;;0.09;82.29
43115;BME280;28727;50.068;14.452;2024-01-30T05:51:47;100984.22;;;0.07;82.27
43115;BME280;28727;50.068;14.452;2024-01-30T05:54:19;100983.38;;;0.07;82.01
43115;BME280;28727;50.068;14.452;2024-01-30T05:56:50;100985.91;;;0.08;81.93
43115;BME280;28727;50.068;14.452;2024-01-30T05:59:22;100980.78;;;0.07;81.59
43115;BME280;28727;50.068;14.452;2024-01-30T06:01:58;100987.00;;;0.03;81.42
43115;BME280;28727;50.068;14.452;2024-01-30T06:04:30;100979.66;;;-0.08;81.84
43115;BME280;28727;50.068;14.452;2024-01-30T06:07:03;100981.28;;;-0.06;82.22
43115;BME280;28727;50.068;14.452;2024-01-30T06:09:41;100988.00;;;0.00;82.25
43115;BME280;28727;50.068;14.452;2024-01-30T06:12:13;100980.84;;;0.05;82.06
43115;BME280;28727;50.068;14.452;2024-01-30T06:14:45;100979.28;;;0.01;81.83
43115;BME280;28727;50.068;14.452;2024-01-30T06:17:22;100980.00;;;0.05;81.96
43115;BME280;28727;50.068;14.452;2024-01-30T06:19:55;100977.94;;;0.13;82.28
43115;BME280;28727;50.068;14.452;2024-01-30T06:22:27;100979.16;;;0.04;81.86
43115;BME280;28727;50.068;14.452;2024-01-30T06:25:00;100980.06;;;0.03;81.52
43115;BME280;28727;50.068;14.452;2024-01-30T06:27:35;100980.31;;;-0.03;81.71
43115;BME280;28727;50.068;14.452;2024-01-30T06:30:07;100978.66;;;-0.06;81.46
43115;BME280;28727;50.068;14.452;2024-01-30T06:32:42;100983.63;;;0.00;81.58
43115;BME280;28727;50.068;14.452;2024-01-30T06:35:14;100990.69;;;-0.03;80.70
43115;BME280;28727;50.068;14.452;2024-01-30T06:37:49;100989.44;;;-0.15;80.93
43115;BME280;28727;50.068;14.452;2024-01-30T06:40:21;100995.13;;;-0.27;80.89
43115;BME280;28727;50.068;14.452;2024-01-30T06:42:53;100997.75;;;-0.28;81.57
43115;BME280;28727;50.068;14.452;2024-01-30T06:45:25;101000.34;;;-0.28;81.65
43115;BME280;28727;50.068;14.452;2024-01-30T06:47:57;100995.13;;;-0.27;81.45
43115;BME280;28727;50.068;14.452;2024-01-30T06:50:29;101003.69;;;-0.25;81.85
43115;BME280;28727;50.068;14.452;2024-01-30T06:53:03;100997.38;;;-0.18;81.65
43115;BME280;28727;50.068;14.452;2024-01-30T06:55:36;100996.19;;;-0.11;81.67
43115;BME280;28727;50.068;14.452;2024-01-30T06:58:08;101002.13;;;-0.07;81.30
43115;BME280;28727;50.068;14.452;2024-01-30T07:00:41;101007.00;;;0.00;81.03
43115;BME280;28727;50.068;14.452;2024-01-30T07:03:13;101008.66;;;-0.19;80.19
43115;BME280;28727;50.068;14.452;2024-01-30T07:05:45;101012.19;;;-0.43;80.92
43115;BME280;28727;50.068;14.452;2024-01-30T07:08:17;101016.81;;;-0.51;81.52
43115;BME280;28727;50.068;14.452;2024-01-30T07:10:51;101017.09;;;-0.59;81.79
43115;BME280;28727;50.068;14.452;2024-01-30T07:13:31;101022.47;;;-0.63;81.94
43115;BME280;28727;50.068;14.452;2024-01-30T07:16:03;101026.31;;;-0.73;82.30
43115;BME280;28727;50.068;14.452;2024-01-30T07:18:36;101023.09;;;-0.80;82.76
43115;BME280;28727;50.068;14.452;2024-01-30T07:21:08;101030.25;;;-0.87;83.43
43115;BME280;28727;50.068;14.452;2024-01-30T07:23:41;101028.41;;;-0.83;83.34
43115;BME280;28727;50.068;14.452;2024-01-30T07:26:16;101027.44;;;-0.80;83.97
43115;BME280;28727;50.068;14.452;2024-01-30T07:28:51;101029.47;;;-0.65;84.11
43115;BME280;28727;50.068;14.452;2024-01-30T07:31:23;101017.00;;;-0.56;84.07
43115;BME280;28727;50.068;14.452;2024-01-30T07:33:55;101027.75;;;-0.43;83.97
43115;BME280;28727;50.068;14.452;2024-01-30T07:36:27;101030.78;;;-0.32;82.94
43115;BME280;28727;50.068;14.452;2024-01-30T07:38:59;101027.13;;;-0.26;82.29
43115;BME280;28727;50.068;14.452;2024-01-30T07:41:35;101029.75;;;-0.28;81.67
43115;BME280;28727;50.068;14.452;2024-01-30T07:44:13;101028.47;;;-0.39;81.77
43115;BME280;28727;50.068;14.452;2024-01-30T07:46:45;101043.22;;;-0.40;82.36
43115;BME280;28727;50.068;14.452;2024-01-30T07:49:18;101038.59;;;-0.32;82.50
43115;BME280;28727;50.068;14.452;2024-01-30T07:51:51;101045.91;;;-0.20;82.05
43115;BME280;28727;50.068;14.452;2024-01-30T07:54:23;101043.72;;;-0.09;81.99
43115;BME280;28727;50.068;14.452;2024-01-30T07:56:55;101050.19;;;0.03;81.27
43115;BME280;28727;50.068;14.452;2024-01-30T07:59:34;101045.47;;;0.13;81.06
43115;BME280;28727;50.068;14.452;2024-01-30T08:02:06;101041.88;;;0.17;80.64
43115;BME280;28727;50.068;14.452;2024-01-30T08:04:41;101036.53;;;0.20;80.18
43115;BME280;28727;50.068;14.452;2024-01-30T08:07:18;101045.06;;;0.23;79.89
43115;BME280;28727;50.068;14.452;2024-01-30T08:09:52;101036.19;;;0.29;80.11
43115;BME280;28727;50.068;14.452;2024-01-30T08:12:24;101039.44;;;0.34;79.58
43115;BME280;28727;50.068;14.452;2024-01-30T08:14:57;101038.38;;;0.38;79.33
43115;BME280;28727;50.068;14.452;2024-01-30T08:17:30;101028.78;;;0.40;79.53
43115;BME280;28727;50.068;14.452;2024-01-30T08:20:04;101027.03;;;0.40;79.26
43115;BME280;28727;50.068;14.452;2024-01-30T08:22:41;101032.13;;;0.22;79.16
43115;BME280;28727;50.068;14.452;2024-01-30T08:25:13;101030.69;;;0.15;80.28
43115;BME280;28727;50.068;14.452;2024-01-30T08:27:45;101027.69;;;0.24;79.99
43115;BME280;28727;50.068;14.452;2024-01-30T08:30:17;101031.88;;;0.28;80.00
43115;BME280;28727;50.068;14.452;2024-01-30T08:32:56;101029.78;;;0.36;80.02
43115;BME280;28727;50.068;14.452;2024-01-30T08:35:31;101028.44;;;0.48;80.02
43115;BME280;28727;50.068;14.452;2024-01-30T08:38:05;101025.47;;;0.57;79.49
43115;BME280;28727;50.068;14.452;2024-01-30T08:40:41;101033.81;;;0.65;79.24
43115;BME280;28727;50.068;14.452;2024-01-30T08:43:14;101031.72;;;0.73;78.89
43115;BME280;28727;50.068;14.452;2024-01-30T08:45:49;101034.84;;;0.61;78.22
43115;BME280;28727;50.068;14.452;2024-01-30T08:48:21;101027.63;;;0.47;79.10
43115;BME280;28727;50.068;14.452;2024-01-30T08:50:55;101035.94;;;0.55;79.55
43115;BME280;28727;50.068;14.452;2024-01-30T08:53:27;101027.75;;;0.64;79.16
43115;BME280;28727;50.068;14.452;2024-01-30T08:56:05;101024.66;;;0.76;78.93
43115;BME280;28727;50.068;14.452;2024-01-30T08:58:37;101026.06;;;0.83;77.95
43115;BME280;28727;50.068;14.452;2024-01-30T09:01:11;101027.63;;;0.67;78.39
43115;BME280;28727;50.068;14.452;2024-01-30T09:03:44;101028.53;;;0.46;78.96
43115;BME280;28727;50.068;14.452;2024-01-30T09:06:18;101019.28;;;0.39;79.86
43115;BME280;28727;50.068;14.452;2024-01-30T09:08:53;101022.75;;;0.39;79.49
43115;BME280;28727;50.068;14.452;2024-01-30T09:11:25;101030.66;;;0.36;79.78
43115;BME280;28727;50.068;14.452;2024-01-30T09:13:57;101028.53;;;0.46;80.35
43115;BME280;28727;50.068;14.452;2024-01-30T09:16:30;101019.19;;;0.62;79.55
43115;BME280;28727;50.068;14.452;2024-01-30T09:19:04;101016.84;;;0.76;79.66
43115;BME280;28727;50.068;14.452;2024-01-30T09:21:36;101019.88;;;0.86;78.86
43115;BME280;28727;50.068;14.452;2024-01-30T09:24:11;101018.28;;;1.02;78.34
43115;BME280;28727;50.068;14.452;2024-01-30T09:26:42;101020.25;;;1.17;77.94
43115;BME280;28727;50.068;14.452;2024-01-30T09:29:17;101025.88;;;1.27;77.49
43115;BME280;28727;50.068;14.452;2024-01-30T09:31:53;101023.78;;;1.35;76.58
43115;BME280;28727;50.068;14.452;2024-01-30T09:34:26;101026.09;;;1.41;76.25
43115;BME280;28727;50.068;14.452;2024-01-30T09:36:59;101022.28;;;1.48;76.09
43115;BME280;28727;50.068;14.452;2024-01-30T09:39:37;101022.09;;;1.53;75.80
43115;BME280;28727;50.068;14.452;2024-01-30T09:45:04;101027.72;;;1.62;76.05
43115;BME280;28727;50.068;14.452;2024-01-30T09:47:43;101028.13;;;1.72;76.24
43115;BME280;28727;50.068;14.452;2024-01-30T09:50:22;101032.28;;;1.76;75.60
43115;BME280;28727;50.068;14.452;2024-01-30T09:52:56;101025.09;;;1.81;75.45
43115;BME280;28727;50.068;14.452;2024-01-30T09:55:37;101022.72;;;1.77;74.92
43115;BME280;28727;50.068;14.452;2024-01-30T09:58:09;101025.31;;;1.77;74.63
43115;BME280;28727;50.068;14.452;2024-01-30T10:00:41;101024.38;;;1.78;75.46
43115;BME280;28727;50.068;14.452;2024-01-30T10:03:13;101021.78;;;1.78;74.85
43115;BME280;28727;50.068;14.452;2024-01-30T10:05:55;101017.50;;;1.77;74.14
43115;BME280;28727;50.068;14.452;2024-01-30T10:08:30;101014.75;;;1.80;74.60
43115;BME280;28727;50.068;14.452;2024-01-30T10:11:05;101009.47;;;1.81;74.28
43115;BME280;28727;50.068;14.452;2024-01-30T10:13:41;101011.00;;;1.85;74.16
43115;BME280;28727;50.068;14.452;2024-01-30T10:16:16;101007.63;;;1.83;73.85
43115;BME280;28727;50.068;14.452;2024-01-30T10:19:02;101000.94;;;1.78;74.09
43115;BME280;28727;50.068;14.452;2024-01-30T10:21:34;101001.16;;;1.73;74.62
43115;BME280;28727;50.068;14.452;2024-01-30T10:24:06;100997.34;;;1.80;74.39
43115;BME280;28727;50.068;14.452;2024-01-30T10:26:38;100998.34;;;1.78;73.82
43115;BME280;28727;50.068;14.452;2024-01-30T10:29:14;100995.25;;;1.70;74.58
43115;BME280;28727;50.068;14.452;2024-01-30T10:32:00;100995.47;;;1.65;74.59
43115;BME280;28727;50.068;14.452;2024-01-30T10:34:35;100991.75;;;1.71;74.43
43115;BME280;28727;50.068;14.452;2024-01-30T10:37:11;100996.13;;;1.70;74.88
43115;BME280;28727;50.068;14.452;2024-01-30T10:39:49;100993.50;;;1.70;74.53
43115;BME280;28727;50.068;14.452;2024-01-30T10:42:31;100995.09;;;1.73;74.32
43115;BME280;28727;50.068;14.452;2024-01-30T10:45:07;100991.75;;;1.71;74.86
43115;BME280;28727;50.068;14.452;2024-01-30T10:47:55;100991.66;;;1.72;75.08
43115;BME280;28727;50.068;14.452;2024-01-30T10:50:30;100984.47;;;1.77;74.63
43115;BME280;28727;50.068;14.452;2024-01-30T10:53:03;100987.50;;;1.87;74.98
43115;BME280;28727;50.068;14.452;2024-01-30T10:55:37;100985.63;;;1.89;74.36
43115;BME280;28727;50.068;14.452;2024-01-30T10:58:11;100987.44;;;1.88;74.68
43115;BME280;28727;50.068;14.452;2024-01-30T11:00:49;100985.25;;;1.79;74.49
43115;BME280;28727;50.068;14.452;2024-01-30T11:03:22;100983.66;;;1.77;74.57
43115;BME280;28727;50.068;14.452;2024-01-30T11:05:59;100984.00;;;1.69;74.37
43115;BME280;28727;50.068;14.452;2024-01-30T11:08:35;100979.94;;;1.63;74.62
43115;BME280;28727;50.068;14.452;2024-01-30T11:11:10;100977.59;;;1.57;75.14
43115;BME280;28727;50.068;14.452;2024-01-30T11:13:44;100969.88;;;1.56;74.99
43115;BME280;28727;50.068;14.452;2024-01-30T11:16:19;100977.84;;;1.53;74.76
43115;BME280;28727;50.068;14.452;2024-01-30T11:18:53;100965.72;;;1.52;74.95
43115;BME280;28727;50.068;14.452;2024-01-30T11:21:25;100973.03;;;1.44;75.36
43115;BME280;28727;50.068;14.452;2024-01-30T11:24:03;100970.44;;;1.44;75.76
43115;BME280;28727;50.068;14.452;2024-01-30T11:26:38;100962.56;;;1.45;75.58
43115;BME280;28727;50.068;14.452;2024-01-30T11:29:13;100961.78;;;1.43;75.53
43115;BME280;28727;50.068;14.452;2024-01-30T11:31:52;100960.06;;;1.42;75.89
43115;BME280;28727;50.068;14.452;2024-01-30T11:34:25;100951.56;;;1.39;76.16
43115;BME280;28727;50.068;14.452;2024-01-30T11:37:03;100954.75;;;1.45;75.44
43115;BME280;28727;50.068;14.452;2024-01-30T11:39:35;100965.00;;;1.48;75.91
43115;BME280;28727;50.068;14.452;2024-01-30T11:42:08;100957.13;;;1.50;75.53
43115;BME280;28727;50.068;14.452;2024-01-30T11:44:40;100950.09;;;1.52;75.48
43115;BME280;28727;50.068;14.452;2024-01-30T11:47:12;100946.59;;;1.53;75.54
43115;BME280;28727;50.068;14.452;2024-01-30T11:49:44;100941.22;;;1.56;75.63
43115;BME280;28727;50.068;14.452;2024-01-30T11:52:19;100943.59;;;1.60;75.17
43115;BME280;28727;50.068;14.452;2024-01-30T11:54:51;100945.66;;;1.54;75.13
43115;BME280;28727;50.068;14.452;2024-01-30T11:57:23;100940.44;;;1.54;75.35
43115;BME280;28727;50.068;14.452;2024-01-30T11:59:56;100935.03;;;1.58;75.51
43115;BME280;28727;50.068;14.452;2024-01-30T12:02:27;100933.97;;;1.62;75.59
43115;BME280;28727;50.068;14.452;2024-01-30T12:05:06;100932.94;;;1.65;75.26
43115;BME280;28727;50.068;14.452;2024-01-30T12:07:38;100930.22;;;1.68;75.47
43115;BME280;28727;50.068;14.452;2024-01-30T12:10:11;100922.88;;;1.76;75.17
43115;BME280;28727;50.068;14.452;2024-01-30T12:12:48;100917.50;;;1.79;74.89
43115;BME280;28727;50.068;14.452;2024-01-30T12:15:21;100916.91;;;1.91;74.72
43115;BME280;28727;50.068;14.452;2024-01-30T12:18:04;100917.75;;;1.92;73.78
43115;BME280;28727;50.068;14.452;2024-01-30T12:20:38;100915.00;;;1.95;73.84
43115;BME280;28727;50.068;14.452;2024-01-30T12:23:12;100914.09;;;1.96;73.70
43115;BME280;28727;50.068;14.452;2024-01-30T12:25:49;100913.16;;;1.97;73.80
43115;BME280;28727;50.068;14.452;2024-01-30T12:28:21;100912.19;;;1.99;74.06
43115;BME280;28727;50.068;14.452;2024-01-30T12:31:01;100908.88;;;1.96;73.16
43115;BME280;28727;50.068;14.452;2024-01-30T12:33:33;100907.34;;;1.92;74.21
43115;BME280;28727;50.068;14.452;2024-01-30T12:36:07;100908.56;;;1.85;74.04
43115;BME280;28727;50.068;14.452;2024-01-30T12:38:39;100902.44;;;1.86;73.73
43115;BME280;28727;50.068;14.452;2024-01-30T12:41:11;100906.13;;;1.82;74.33
43115;BME280;28727;50.068;14.452;2024-01-30T12:43:43;100901.59;;;1.85;74.23
43115;BME280;28727;50.068;14.452;2024-01-30T12:46:17;100899.16;;;1.82;74.40
43115;BME280;28727;50.068;14.452;2024-01-30T12:48:49;100897.34;;;1.83;74.45
43115;BME280;28727;50.068;14.452;2024-01-30T12:51:22;100896.63;;;1.81;74.56
43115;BME280;28727;50.068;14.452;2024-01-30T12:53:54;100893.84;;;1.84;76.88
43115;BME280;28727;50.068;14.452;2024-01-30T12:56:31;100901.47;;;1.88;75.05
43115;BME280;28727;50.068;14.452;2024-01-30T12:59:05;100898.22;;;1.83;74.44
43115;BME280;28727;50.068;14.452;2024-01-30T13:01:39;100894.84;;;1.81;74.53
43115;BME280;28727;50.068;14.452;2024-01-30T13:04:12;100888.78;;;1.81;74.41
43115;BME280;28727;50.068;14.452;2024-01-30T13:06:44;100893.22;;;1.79;74.51
43115;BME280;28727;50.068;14.452;2024-01-30T13:09:17;100892.84;;;1.86;74.57
43115;BME280;28727;50.068;14.452;2024-01-30T13:11:49;100885.66;;;1.91;74.80
43115;BME280;28727;50.068;14.452;2024-01-30T13:14:23;100891.41;;;1.98;74.67
43115;BME280;28727;50.068;14.452;2024-01-30T13:16:55;100884.19;;;2.03;74.28
43115;BME280;28727;50.068;14.452;2024-01-30T13:19:27;100884.13;;;2.04;74.21
43115;BME280;28727;50.068;14.452;2024-01-30T13:22:01;100888.19;;;2.10;74.15